Pagrindinis puslapis
METAR-TAF:

METAR-TAF

Oro uostai :

Čongčingas, Kinija

platuma: 29-31N, ilguma: 106-29E, Aukštis: 351 m

Dabartinis oras

Ataskaita buvo paskelbta 1 valandą ir 12 minutes, ne 10:00 UTC
Vėjas 2 kt nuo kintamojo kryptimis
Temperatūra 18°C
Drėgmė 56%
Slėgis 1013 hPa
Matomumas 10 km arba daugiau
Mažai debesys ne aukštis 3300 ft

METAR: ZUCK 311000Z VRB01MPS 9999 FEW033 18/09 Q1013 NOSIG

Laikas: 19:12 (11:12 UTC)

Prognozė

Ataskaita buvo paskelbta 8 valandos ir 8 minutes, ne 03:04 UTC
Prognozė galioja nuo 31 metu 06 UTC su 01 metu 06 UTC
Vėjas 6 kt iš Vakarų/Pietvakarių
Matomumas: 6000 m
Išsisklaidę debesys ne aukštis 4000 ft
Tapsmas
nuo 31 metu 10 UTC su 31 metu 11 UTC
Vėjas 6 kt iš Rytų/Šiaurės Rytų
Laikinai
nuo 31 metu 20 UTC su 01 metu 02 UTC
Matomumas: 3500 m
Išsisklaidę debesys ne aukštis 2300 ft
Mažai debesys ne aukštis 4000 ft, Liūtiniai kamuoliniai debesys.
Apsiniaukę ne aukštis 5000 ft
lietus

TAF: ZUCK 310304Z 3106/0106 24003MPS 6000 SCT040 TX20/3107Z TN13/3121Z BECMG 3110/3111 06003MPS TEMPO 3120/0102 3500 SHRA SCT023 FEW040CB OVC050

Orai ataskaitas ir orų prognozės (METAR, TAF).

turimą stotys yra geltonos ir raudonos taškus žemėlapyje.

Perkelti pele per norėdami pamatyti stoties vardą.

Tada spustelėkite, norėdami matyti oro stebėjimo ir prognozės.

Norėdami pakeisti žemėlapį: spustelėkite ant žalios mygtukų su juodo kryžiaus žemyn,; žalią mygtuką su brūkšneliu, jei norite nutolinti; arba žalių rodyklių gretimoms žemėlapius.


METAR-TAF: